Handytankers Miracle — V7OM4 — position and weather

sailwx.info

Track history (hours):
 
Tides and Currents Weather Stations Pressure Air Temp Water Temp Dewpoint Dewpoint Depression Visibility Wind Speed Wind Dir Waves Ship Positions

Handytankers Miracle

Last reported at 2017-Mar-26 18:27 UTC. Time now 2017-Mar-26 18:56 UTC.
Position N 01°12' E 103°41'.

Length 183 m; draft 7.3 m.

Type: Tanker. MMSI: 538003114.

Date/timePositionNaut miles runAvg speedWind from/ knotsBaromVisibWave heightAir tempDewpointWater temp
2017-Mar-26 18:27N 01°12' E 103°41'0 0.0
2017-Mar-26 17:30N 01°12' E 103°41'0 0.0
2017-Mar-26 16:29N 01°12' E 103°41'0 0.0
2017-Mar-26 15:32N 01°12' E 103°41'0 0.0
2017-Mar-26 14:29N 01°12' E 103°41'0 0.0
2017-Mar-26 13:30N 01°12' E 103°41'0 0.0
2017-Mar-26 12:18N 01°12' E 103°41'0 0.1
2017-Mar-26 11:26N 01°12' E 103°40'0 0.1
2017-Mar-26 10:26N 01°12' E 103°40'0 0.2
2017-Mar-26 09:26N 01°12' E 103°41'0 0.2
2017-Mar-26 08:32N 01°12' E 103°41'0 0.1
2017-Mar-26 07:32N 01°12' E 103°41'0 0.0
2017-Mar-26 06:32N 01°12' E 103°41'0 0.1
2017-Mar-26 05:23N 01°12' E 103°41'0 0.2
2017-Mar-26 04:32N 01°12' E 103°41'0 0.0
2017-Mar-26 03:32N 01°12' E 103°41'0 0.1
2017-Mar-26 02:29N 01°12' E 103°41'0 0.0
2017-Mar-26 01:34N 01°12' E 103°41'0 0.0
2017-Mar-26 00:34N 01°12' E 103°41'0 0.0
2017-Mar-25 23:33N 01°12' E 103°41'2 2.1
2017-Mar-25 22:33N 01°10' E 103°42'9 9.1
2017-Mar-25 21:33N 01°12' E 103°51'1211.4
2017-Mar-25 20:31N 01°16' E 104°02'6 0.7
2017-Mar-25 12:29N 01°19' E 104°06'0 0.0
2017-Mar-24 14:14N 01°19' E 104°06'0 0.0
2017-Mar-23 23:26N 01°19' E 104°06'0 0.0
2017-Mar-23 18:20N 01°19' E 104°06'0 0.0
2017-Mar-23 16:23N 01°19' E 104°06'0 0.0
2017-Mar-23 12:14N 01°19' E 104°06'0 0.0
2017-Mar-23 08:14N 01°19' E 104°06'0 0.0
2017-Mar-22 14:30N 01°19' E 104°06'3 2.8
2017-Mar-22 13:33N 01°20' E 104°04'7 0.1
2017-Mar-20 15:09N 01°26' E 104°01'4 5.9
2017-Mar-20 14:29N 01°22' E 104°02'6 4.1
2017-Mar-20 13:04N 01°19' E 104°07'  
Track history (hours):
 
Tides and Currents Weather Stations Pressure Air Temp Water Temp Dewpoint Dewpoint Depression Visibility Wind Speed Wind Dir Waves Ship Positions

Handytankers Miracle

Last reported at 2017-Mar-26 18:27 UTC. Time now 2017-Mar-26 18:56 UTC.
Position N 01°12' E 103°41'.

Length 183 m; draft 7.3 m.

Type: Tanker. MMSI: 538003114.

Date/timePositionNaut miles runAvg speedWind from/ knotsBaromVisibWave heightAir tempDewpointWater temp
2017-Mar-26 18:27N 01°12' E 103°41'0 0.0
2017-Mar-26 17:30N 01°12' E 103°41'0 0.0
2017-Mar-26 16:29N 01°12' E 103°41'0 0.0
2017-Mar-26 15:32N 01°12' E 103°41'0 0.0
2017-Mar-26 14:29N 01°12' E 103°41'0 0.0
2017-Mar-26 13:30N 01°12' E 103°41'0 0.0
2017-Mar-26 12:18N 01°12' E 103°41'0 0.1
2017-Mar-26 11:26N 01°12' E 103°40'0 0.1
2017-Mar-26 10:26N 01°12' E 103°40'0 0.2
2017-Mar-26 09:26N 01°12' E 103°41'0 0.2
2017-Mar-26 08:32N 01°12' E 103°41'0 0.1
2017-Mar-26 07:32N 01°12' E 103°41'0 0.0
2017-Mar-26 06:32N 01°12' E 103°41'0 0.1
2017-Mar-26 05:23N 01°12' E 103°41'0 0.2
2017-Mar-26 04:32N 01°12' E 103°41'0 0.0
2017-Mar-26 03:32N 01°12' E 103°41'0 0.1
2017-Mar-26 02:29N 01°12' E 103°41'0 0.0
2017-Mar-26 01:34N 01°12' E 103°41'0 0.0
2017-Mar-26 00:34N 01°12' E 103°41'0 0.0
2017-Mar-25 23:33N 01°12' E 103°41'2 2.1
2017-Mar-25 22:33N 01°10' E 103°42'9 9.1
2017-Mar-25 21:33N 01°12' E 103°51'1211.4
2017-Mar-25 20:31N 01°16' E 104°02'6 0.7
2017-Mar-25 12:29N 01°19' E 104°06'0 0.0
2017-Mar-24 14:14N 01°19' E 104°06'0 0.0
2017-Mar-23 23:26N 01°19' E 104°06'0 0.0
2017-Mar-23 18:20N 01°19' E 104°06'0 0.0
2017-Mar-23 16:23N 01°19' E 104°06'0 0.0
2017-Mar-23 12:14N 01°19' E 104°06'0 0.0
2017-Mar-23 08:14N 01°19' E 104°06'0 0.0
2017-Mar-22 14:30N 01°19' E 104°06'3 2.8
2017-Mar-22 13:33N 01°20' E 104°04'7 0.1
2017-Mar-20 15:09N 01°26' E 104°01'4 5.9
2017-Mar-20 14:29N 01°22' E 104°02'6 4.1
2017-Mar-20 13:04N 01°19' E 104°07'  

Dump ship's entire track history